Rockwell, Iowa
Current Conditions -  °F | °C
As of 9:00 PM on Saturday 20 Dec 2014 (Local Time) from KMCW Reporting Station
Haze Haze  
Wind Chill: 23°   Ceiling: 200
Heat Index: 31°   Visibility: 0.75mi
Dew Point: 30°   Wind: 9mph
Humidity: 96%   Direction: 150°SSE
Pressure: 30.11"   Gusts: NA
Location:  42.99°N, 93.19°W
Report Text: KMCW 210300Z AUTO 15008KT 3/4SM BR VV002 M01/M01 A3011 RMK AO2 T10061011 $
Loading
Personal Weather Stations






























Interactive Weather Map New forecast layout! Learn more

10-Day Weather Forecast

Advertisements
Track Severe Weather on mobile